• Join FlightAware (Why Join?)
  • Login
  • US Flag 
05:31PM EDT


 

Airport Tracker/Info


-or-


 

Live Flight TrackerFlight Track Log ✈ AWE2690 ✈ 12-Sep-2013 ✈ KCLT - KIND

Flight Track Log - Related Links

Times and Time Zones

All times are in EDT time to prevent confusion due to time zone crossing. See the AWE2690 flight status page for this flight to view local times or setup timezone preferences in your user account.

Time Position Orientation Groundspeed Altitude Reporting Facility
EDT Latitude Longitude Course Direction KTS MPH feet Rate Location/Type
01:32PM 35.1911 -80.9508 13° North 186 214 1,200  Level Atlanta Center
01:33PM 35.1369 -80.9556 184° South 209 241 2,800 1,860 Climbing Atlanta Center
01:34PM 35.0928 -81.0206 230° Southwest 279 321 5,100 2,280 Climbing Atlanta Center
01:35PM 35.3121 -81.1216 52° Northeast  Level FlightAware Approximate
01:35PM 35.0922 -81.0867 269° West 273 314 7,100  Level Atlanta Center
01:35PM 35.0969 -81.1092 284° West 276 318 7,600 900 Climbing Atlanta Center
01:36PM 35.3877 -81.0026 52° Northeast  Level FlightAware Approximate
01:36PM 35.1153 -81.1747 289° West 280 322 8,000  Level Atlanta Center
01:37PM 35.4960 -80.9434 13° North  Level FlightAware Approximate
01:37PM 35.1725 -81.2133 331° Northwest 219 252 9,000  Level Atlanta Center
01:38PM 35.2467 -81.1728 24° Northeast 256 295 11,100 2,040 Climbing Atlanta Center
01:39PM 35.3269 -81.1239 26° Northeast 293 337 13,100 1,440 Climbing Atlanta Center
01:40PM 35.4153 -81.0675 27° Northeast 332 382 14,000 360 Climbing Atlanta Center
01:42PM 35.5919 -80.9614 26° Northeast 343 395 14,200 660 Climbing Atlanta Center
01:43PM 35.6867 -80.9961 343° North 334 384 16,000 1,800 Climbing Atlanta Center
01:44PM 35.7758 -81.0594 330° Northwest 354 407 17,800 1,740 Climbing Atlanta Center
01:45PM 35.8694 -81.1253 330° Northwest 383 441 19,500 1,620 Climbing Atlanta Center
01:46PM 35.9628 -81.1936 329° Northwest 390 449 21,100 1,440 Climbing Atlanta Center
01:47PM 36.0319 -81.2964 310° West 384 442 22,400 1,320 Climbing Atlanta Center
01:48PM 36.1075 -81.4147 308° West 395 455 23,800 1,200 Climbing Atlanta Center
01:49PM 36.1786 -81.5281 308° West 416 479 24,900 1,080 Climbing Atlanta Center
01:50PM 36.2497 -81.6417 308° West 416 479 26,000 1,020 Climbing Atlanta Center
01:51PM 36.3208 -81.7583 307° West 422 486 27,000 960 Climbing Atlanta Center
01:52PM 36.3958 -81.8747 309° West 432 497 28,000 1,200 Climbing Atlanta Center
01:53PM 36.4581 -81.9814 306° West 427 491 29,500 1,080 Climbing Atlanta Center
01:54PM 36.5308 -82.0983 308° West 433 498 30,200 1,020 Climbing Atlanta Center
01:55PM 36.6058 -82.2208 307° West 433 498 31,600 1,260 Climbing Atlanta Center
01:56PM 36.6764 -82.3383 307° West 433 498 32,800 1,020 Climbing Atlanta Center
01:57PM 36.7736 -82.4956 308° West 422 486 34,000 480 Climbing Indianapolis Center
01:58PM 36.8453 -82.6133 307° West 426 490 34,000  Level Indianapolis Center
01:59PM 36.9200 -82.7347 308° West 442 509 34,000  Level Indianapolis Center
02:00PM 37.0064 -82.8756 308° West 458 527 34,000  Level Indianapolis Center
02:01PM 37.0931 -82.9806 316° Northwest 442 509 34,000  Level Indianapolis Center
02:02PM 37.1822 -83.0828 318° Northwest 436 502 34,000  Level Indianapolis Center
02:03PM 37.2722 -83.1844 318° Northwest 436 502 34,000  Level Indianapolis Center
02:04PM 37.3650 -83.2867 319° Northwest 440 506 34,000  Level Indianapolis Center
02:05PM 37.4586 -83.3894 319° Northwest 445 512 34,000  Level Indianapolis Center
02:06PM 37.5600 -83.5181 315° West 444 511 34,000  Level Indianapolis Center
02:07PM 37.6478 -83.6278 315° West 444 511 34,000  Level Indianapolis Center
02:08PM 37.7364 -83.7356 316° Northwest 441 507 34,000  Level Indianapolis Center
02:09PM 37.8244 -83.8403 317° Northwest 435 501 34,000  Level Indianapolis Center
02:11PM 37.9103 -83.9447 316° Northwest 429 494 34,000  Level Indianapolis Center
02:12PM 37.9978 -84.0450 318° Northwest 425 489 34,000  Level Indianapolis Center
02:13PM 38.0981 -84.1644 317° Northwest 423 487 34,000  Level Indianapolis Center
02:14PM 38.1794 -84.2717 314° West 421 484 34,000 -480 Level Indianapolis Center
02:15PM 38.2808 -84.3511 328° Northwest 433 498 33,100 -960 Descending Indianapolis Center
02:16PM 38.3944 -84.4092 338° Northwest 437 503 32,100 -1,260 Descending Indianapolis Center
02:17PM 38.5108 -84.4694 338° Northwest 447 514 30,600 -1,500 Descending Indianapolis Center
02:18PM 38.6306 -84.5322 338° Northwest 460 529 29,100 -1,260 Descending Indianapolis Center
02:19PM 38.7569 -84.5983 338° Northwest 455 524 28,000 -540 Descending Indianapolis Center
02:20PM 38.8717 -84.6564 338° Northwest 447 514 28,000 -360 Level Indianapolis Center
02:21PM 38.9858 -84.7169 338° Northwest 449 517 27,300 -1,080 Descending Indianapolis Center
02:22PM 39.0994 -84.7783 337° Northwest 446 513 25,800 -1,500 Descending Indianapolis Center
02:23PM 39.2033 -84.8344 337° Northwest 425 489 24,300 -900 Descending Indianapolis Center
02:24PM 39.3239 -84.8978 338° Northwest 404 465 24,000 -540 Descending Indianapolis Center
02:25PM 39.4267 -84.9533 337° Northwest 402 463 23,300 -1,080 Descending Indianapolis Center
02:26PM 39.5297 -85.0086 338° Northwest 402 463 21,800 -1,500 Descending Indianapolis Center
02:27PM 39.6300 -85.0597 339° North 394 453 20,200 -1,500 Descending Indianapolis Center
02:28PM 39.7297 -85.1111 338° Northwest 389 448 18,700 -1,620 Descending Indianapolis Center
02:29PM 39.8450 -85.1703 338° Northwest 377 434 16,900 -1,620 Descending Indianapolis Center
02:30PM 39.9408 -85.2175 339° North 372 428 15,500 -1,380 Descending Indianapolis Center
02:31PM 40.0331 -85.2656 338° Northwest 363 418 14,100 -840 Descending Indianapolis Center
02:32PM 40.1147 -85.3219 332° Northwest 345 397 13,800 -720 Descending Indianapolis Center
02:33PM 40.1231 -85.4381 275° West 334 384 12,700 -1,020 Descending Indianapolis Center
02:34PM 40.1128 -85.5603 264° West 340 391 11,700 -840 Descending Indianapolis Center
02:35PM 40.1000 -85.7019 263° West 330 380 11,000 -840 Descending Indianapolis Center
02:36PM 40.0650 -85.7942 244° Southwest 288 331 10,000 -1,260 Descending Indianapolis Center
02:37PM 40.0283 -85.8778 240° Southwest 269 310 8,500 -1,500 Descending Indianapolis Center
02:38PM 39.9775 -85.9528 229° Southwest 277 319 7,000 -1,500 Descending Indianapolis Center
02:39PM 39.9186 -86.0186 221° Southwest 280 322 5,500 -1,500 Descending Indianapolis Center
02:40PM 39.8703 -86.0906 229° Southwest 271 312 4,000 -1,200 Descending Indianapolis Center
02:41PM 39.8131 -86.1606 223° Southwest 249 287 3,100 -780 Descending Indianapolis Center
02:42PM 39.7761 -86.2086 225° Southwest 217 250 2,500 -720 Descending Indianapolis Center
02:44PM 39.7469 -86.2458 224° Southwest 173 199 1,700 -840 Descending Indianapolis Center
02:45PM 39.7161 -86.2836 223° Southwest 154 177 900 -480 Descending Indianapolis Center
02:46PM 39.7067 -86.2983 230° Southwest 81 93 800 -60 Descending Indianapolis Center
02:47PM 39.7119 -86.2936 35° Northeast 40 46 800  Level Indianapolis Center
02:48PM 39.7164 -86.2914 21° North 27 31 800  Level Indianapolis Center
02:49PM 39.7189 -86.2944 317° Northwest 20 23 800  Level Indianapolis Center